createdAt,value
2022-11-23T00:00:17.012Z,4.00
2022-11-23T00:02:54.190Z,4.33
2022-11-23T00:05:27.552Z,5.40
2022-11-23T00:07:59.897Z,5.63
2022-11-23T00:10:31.913Z,5.95
2022-11-23T00:13:03.971Z,4.85
2022-11-23T00:15:36.045Z,4.85
2022-11-23T00:18:08.347Z,5.10
2022-11-23T00:20:40.469Z,5.65
2022-11-23T00:23:12.709Z,5.85
2022-11-23T00:25:47.192Z,6.75
2022-11-23T00:28:19.337Z,7.03
2022-11-23T00:30:51.468Z,7.03
2022-11-23T00:33:23.671Z,7.03
2022-11-23T00:36:04.058Z,6.65
2022-11-23T00:38:36.253Z,6.03
2022-11-23T00:41:11.242Z,6.95
2022-11-23T00:43:44.118Z,6.97
2022-11-23T00:46:17.568Z,7.32
2022-11-23T00:48:51.819Z,6.47
2022-11-23T00:51:31.620Z,6.25
2022-11-23T00:54:05.576Z,6.63
2022-11-23T00:56:37.595Z,5.60
2022-11-23T00:59:10.607Z,5.65
2022-11-23T01:01:43.713Z,5.82
2022-11-23T01:04:15.850Z,6.10
2022-11-23T01:06:50.551Z,6.85
2022-11-23T01:09:26.545Z,6.85
2022-11-23T01:11:58.631Z,6.47
2022-11-23T01:14:30.684Z,6.35
2022-11-23T01:17:02.726Z,6.93
2022-11-23T01:19:34.838Z,6.15
2022-11-23T01:22:06.861Z,6.30
2022-11-23T01:24:38.971Z,5.85
2022-11-23T01:27:14.278Z,6.28
2022-11-23T01:29:46.368Z,7.05
2022-11-23T01:32:18.358Z,6.47
2022-11-23T01:34:51.733Z,6.90
2022-11-23T01:37:23.889Z,5.50
2022-11-23T01:39:57.338Z,6.60
2022-11-23T01:43:13.779Z,6.30
2022-11-23T01:45:57.544Z,6.85
2022-11-23T01:48:46.698Z,7.30
2022-11-23T01:51:23.268Z,7.53
2022-11-23T01:53:59.079Z,6.97
2022-11-23T01:56:35.757Z,7.22
2022-11-23T01:59:12.694Z,6.43
2022-11-23T02:01:44.788Z,6.80
2022-11-23T02:04:23.642Z,6.65
2022-11-23T02:06:56.137Z,7.03
2022-11-23T02:09:32.774Z,7.15
2022-11-23T02:12:11.179Z,7.10
2022-11-23T02:14:44.494Z,8.70
2022-11-23T02:17:16.481Z,6.65
2022-11-23T02:20:08.479Z,6.53
2022-11-23T02:23:01.740Z,6.70
2022-11-23T02:25:43.640Z,9.23
2022-11-23T02:28:26.849Z,7.70
2022-11-23T02:30:59.104Z,7.53
2022-11-23T02:33:31.143Z,8.45
2022-11-23T02:36:23.333Z,6.43
2022-11-23T02:39:00.014Z,8.55
2022-11-23T02:41:53.108Z,7.88
2022-11-23T02:44:44.139Z,7.32
2022-11-23T02:47:17.598Z,7.07
2022-11-23T02:49:50.086Z,6.93
2022-11-23T02:54:58.087Z,6.68
2022-11-23T02:57:30.087Z,6.22
2022-11-23T03:00:02.160Z,6.22
2022-11-23T03:02:35.036Z,5.90
2022-11-23T03:05:07.859Z,5.78
2022-11-23T03:07:40.016Z,5.73
2022-11-23T03:10:12.613Z,4.40
2022-11-23T03:12:44.988Z,4.32
2022-11-23T03:15:18.932Z,4.18
2022-11-23T03:17:52.756Z,5.07
2022-11-23T03:20:26.326Z,5.63
2022-11-23T03:22:59.610Z,6.03
2022-11-23T03:25:32.180Z,5.57
2022-11-23T03:28:04.512Z,5.50
2022-11-23T03:33:11.832Z,4.63
2022-11-23T03:35:44.081Z,4.88
2022-11-23T03:38:25.530Z,4.00
2022-11-23T03:40:58.819Z,4.60
2022-11-23T03:43:37.975Z,4.35
2022-11-23T03:46:09.959Z,4.50
2022-11-23T03:48:42.532Z,5.10
2022-11-23T03:51:14.799Z,3.75
2022-11-23T03:53:46.743Z,4.10
2022-11-23T03:56:18.796Z,3.05
2022-11-23T03:58:51.888Z,3.30
2022-11-23T04:01:24.163Z,3.22
2022-11-23T04:04:02.944Z,3.25
2022-11-23T04:06:43.499Z,3.33
2022-11-23T04:09:22.828Z,3.20
2022-11-23T04:12:10.647Z,2.83
2022-11-23T04:14:44.023Z,2.72
2022-11-23T04:17:16.040Z,3.30
2022-11-23T04:19:49.189Z,2.95
2022-11-23T04:22:21.523Z,2.78
2022-11-23T04:24:53.541Z,3.00
2022-11-23T04:27:25.729Z,3.38
2022-11-23T04:29:59.298Z,3.67
2022-11-23T04:35:04.761Z,2.55
2022-11-23T04:40:10.583Z,2.60
2022-11-23T04:42:46.915Z,3.00
2022-11-23T04:45:19.326Z,3.72
2022-11-23T04:47:51.404Z,2.88
2022-11-23T04:50:23.519Z,3.55
2022-11-23T04:52:59.435Z,4.72
2022-11-23T04:55:40.536Z,4.53
2022-11-23T04:58:12.693Z,3.60
2022-11-23T05:00:45.180Z,3.67
2022-11-23T05:05:50.834Z,4.18
2022-11-23T05:08:23.131Z,4.43
2022-11-23T05:11:01.237Z,6.28
2022-11-23T05:13:33.620Z,7.22
2022-11-23T05:16:07.893Z,8.55
2022-11-23T05:18:40.052Z,8.55
2022-11-23T05:21:13.004Z,6.68
2022-11-23T05:23:45.397Z,7.10
2022-11-23T05:28:50.850Z,3.67
2022-11-23T05:31:23.312Z,3.13
2022-11-23T05:33:56.784Z,2.47
2022-11-23T05:36:42.419Z,2.60
2022-11-23T05:39:15.096Z,2.97
2022-11-23T05:41:47.164Z,3.03
2022-11-23T05:44:32.209Z,3.15
2022-11-23T05:47:04.935Z,2.30
2022-11-23T05:49:38.858Z,3.28
2022-11-23T05:52:11.630Z,2.92
2022-11-23T05:54:44.980Z,2.50
2022-11-23T05:59:51.005Z,2.92
2022-11-23T06:02:27.480Z,3.08
2022-11-23T06:05:05.950Z,2.78
2022-11-23T06:07:46.801Z,4.32
2022-11-23T06:10:19.006Z,3.03
2022-11-23T06:12:53.546Z,2.85
2022-11-23T06:15:27.589Z,3.50
2022-11-23T06:18:01.594Z,3.03
2022-11-23T06:20:41.475Z,3.42
2022-11-23T06:23:13.489Z,3.05
2022-11-23T06:25:45.655Z,3.90
2022-11-23T06:28:30.390Z,3.78
2022-11-23T06:31:07.250Z,3.92
2022-11-23T06:33:40.360Z,4.32
2022-11-23T06:36:15.561Z,4.05
2022-11-23T06:38:53.131Z,4.68
2022-11-23T06:41:32.436Z,4.38
2022-11-23T06:44:06.721Z,4.63
2022-11-23T06:46:44.576Z,5.25
2022-11-23T06:49:19.313Z,6.03
2022-11-23T06:51:57.012Z,5.38
2022-11-23T06:54:29.144Z,5.38
2022-11-23T06:57:02.491Z,5.75
2022-11-23T06:59:34.963Z,5.18
2022-11-23T07:02:10.071Z,4.90
2022-11-23T07:04:42.404Z,4.75
2022-11-23T07:07:21.041Z,4.43
2022-11-23T07:10:06.622Z,4.57
2022-11-23T07:12:47.521Z,4.47
2022-11-23T07:15:22.523Z,4.22
2022-11-23T07:17:56.588Z,4.32
2022-11-23T07:20:29.767Z,3.88
2022-11-23T07:23:03.716Z,4.55
2022-11-23T07:25:37.291Z,3.92
2022-11-23T07:28:12.110Z,3.85
2022-11-23T07:30:44.241Z,3.88
2022-11-23T07:33:16.223Z,3.70
2022-11-23T07:35:48.578Z,3.50
2022-11-23T07:38:20.696Z,3.30
2022-11-23T07:40:53.418Z,4.30
2022-11-23T07:43:48.689Z,3.95
2022-11-23T07:46:21.738Z,4.45
2022-11-23T07:48:54.628Z,3.40
2022-11-23T07:51:26.561Z,3.10
2022-11-23T07:53:58.542Z,3.42
2022-11-23T07:56:30.497Z,3.25
2022-11-23T07:59:02.427Z,3.33
2022-11-23T08:01:34.401Z,3.80
2022-11-23T08:04:06.419Z,2.60
2022-11-23T08:06:38.395Z,2.60
2022-11-23T08:09:10.381Z,3.65
2022-11-23T08:11:42.664Z,2.88
2022-11-23T08:14:14.659Z,2.95
2022-11-23T08:16:51.099Z,4.68
2022-11-23T08:19:23.247Z,2.75
2022-11-23T08:21:55.188Z,3.17
2022-11-23T08:24:27.243Z,3.33
2022-11-23T08:26:59.403Z,3.70
2022-11-23T08:29:31.400Z,3.00
2022-11-23T08:32:03.375Z,3.10
2022-11-23T08:34:35.419Z,3.05
2022-11-23T08:37:10.633Z,3.63
2022-11-23T08:39:42.612Z,2.40
2022-11-23T08:42:14.557Z,2.97
2022-11-23T08:44:47.038Z,3.05
2022-11-23T08:47:19.749Z,2.40
2022-11-23T08:49:51.735Z,2.60
2022-11-23T08:52:24.003Z,2.50
2022-11-23T08:54:56.394Z,2.72
2022-11-23T08:57:28.818Z,2.70
2022-11-23T09:00:00.881Z,2.20
2022-11-23T09:02:32.945Z,1.95
2022-11-23T09:05:06.947Z,2.58
2022-11-23T09:07:39.387Z,1.90
2022-11-23T09:10:15.143Z,1.90
2022-11-23T09:12:50.209Z,2.45
2022-11-23T09:15:22.342Z,2.17
2022-11-23T09:17:54.435Z,2.00
2022-11-23T09:20:26.999Z,2.17
2022-11-23T09:22:58.938Z,2.20
2022-11-23T09:25:30.889Z,2.13
2022-11-23T09:28:04.454Z,2.63
2022-11-23T09:33:09.283Z,2.00
2022-11-23T09:35:44.059Z,2.15
2022-11-23T09:38:17.009Z,2.22
2022-11-23T09:40:57.923Z,1.83
2022-11-23T09:43:55.269Z,2.40
2022-11-23T09:46:48.255Z,1.98
2022-11-23T09:49:49.767Z,2.50
2022-11-23T09:52:24.085Z,1.83
2022-11-23T09:55:00.402Z,2.33
2022-11-23T09:57:35.548Z,1.75
2022-11-23T10:00:20.821Z,2.05
2022-11-23T10:02:53.557Z,2.35
2022-11-23T10:05:27.559Z,2.30
2022-11-23T10:08:26.706Z,2.65
2022-11-23T10:11:31.220Z,1.60
2022-11-23T10:17:02.728Z,1.63
2022-11-23T10:19:53.033Z,1.60
2022-11-23T10:23:00.769Z,1.60
2022-11-23T10:25:45.907Z,2.00
2022-11-23T10:28:20.736Z,1.60
2022-11-23T10:31:15.738Z,1.30
2022-11-23T10:34:11.337Z,1.80
2022-11-23T10:36:43.735Z,1.75
2022-11-23T10:39:28.480Z,2.03
2022-11-23T10:42:03.507Z,2.03
2022-11-23T10:44:38.187Z,1.30
2022-11-23T10:47:10.257Z,1.60
2022-11-23T10:49:58.716Z,1.85
2022-11-23T10:52:33.482Z,1.67
2022-11-23T10:55:09.239Z,1.42
2022-11-23T10:57:45.558Z,1.52
2022-11-23T11:00:19.748Z,1.20
2022-11-23T11:02:56.777Z,1.23
2022-11-23T11:06:07.490Z,1.40
2022-11-23T11:08:35.767Z,1.40
2022-11-23T11:11:21.242Z,1.42
2022-11-23T11:14:05.059Z,1.23
2022-11-23T11:16:38.723Z,1.45
2022-11-23T11:21:53.922Z,1.83
2022-11-23T11:24:36.067Z,1.30
2022-11-23T11:27:15.967Z,1.48
2022-11-23T11:29:50.995Z,1.67
2022-11-23T11:32:28.890Z,1.80
2022-11-23T11:35:10.695Z,1.30
2022-11-23T11:37:51.312Z,1.80
2022-11-23T11:40:34.618Z,2.95
2022-11-23T11:43:37.921Z,1.15
2022-11-23T11:46:30.640Z,2.20
2022-11-23T11:49:18.046Z,2.20
2022-11-23T11:51:57.145Z,1.00
2022-11-23T11:54:39.098Z,1.52
2022-11-23T11:57:31.689Z,1.20
2022-11-23T12:00:11.449Z,1.55
2022-11-23T12:02:57.557Z,0.90
2022-11-23T12:06:02.542Z,1.38
2022-11-23T12:09:03.395Z,1.80
2022-11-23T12:11:36.644Z,1.30
2022-11-23T12:14:14.435Z,1.65
2022-11-23T12:17:31.348Z,1.55
2022-11-23T12:20:17.938Z,1.30
2022-11-23T12:22:58.446Z,1.48
2022-11-23T12:25:48.395Z,1.10
2022-11-23T12:28:45.807Z,1.60
2022-11-23T12:31:43.935Z,1.25
2022-11-23T12:34:29.195Z,1.23
2022-11-23T12:37:23.033Z,1.30
2022-11-23T12:40:07.390Z,1.40
2022-11-23T12:42:54.948Z,1.30
2022-11-23T12:45:50.580Z,1.85
2022-11-23T12:48:37.434Z,1.40
2022-11-23T12:51:46.811Z,1.35
2022-11-23T12:54:39.713Z,1.20
2022-11-23T12:57:28.267Z,1.00
2022-11-23T13:00:08.288Z,1.25
2022-11-23T13:03:20.862Z,1.30
2022-11-23T13:06:35.059Z,1.23
2022-11-23T13:09:39.212Z,1.48
2022-11-23T13:12:28.273Z,0.90
2022-11-23T13:15:31.698Z,1.15
2022-11-23T13:18:12.686Z,1.10
2022-11-23T13:21:04.088Z,0.90
2022-11-23T13:23:39.873Z,1.08
2022-11-23T13:26:28.209Z,1.67
2022-11-23T13:29:02.655Z,1.35
2022-11-23T13:31:36.071Z,1.02
2022-11-23T13:37:16.843Z,1.30
2022-11-23T13:40:03.823Z,1.58
2022-11-23T13:42:36.728Z,1.60
2022-11-23T13:45:22.317Z,1.90
2022-11-23T13:48:09.113Z,1.70
2022-11-23T13:50:57.355Z,1.45
2022-11-23T13:53:34.125Z,1.20
2022-11-23T13:56:31.823Z,2.00
2022-11-23T13:59:25.707Z,2.10
2022-11-23T14:02:00.331Z,1.83
2022-11-23T14:04:34.926Z,1.55
2022-11-23T14:07:18.780Z,1.58
2022-11-23T14:09:56.064Z,1.70
2022-11-23T14:12:46.862Z,1.27
2022-11-23T14:15:47.402Z,1.77
2022-11-23T14:18:38.027Z,2.17
2022-11-23T14:21:37.757Z,2.35
2022-11-23T14:24:30.734Z,2.22
2022-11-23T14:27:38.909Z,2.22
2022-11-23T14:30:14.531Z,1.90
2022-11-23T14:33:14.670Z,2.10
2022-11-23T14:36:01.620Z,2.33
2022-11-23T14:39:28.407Z,2.00
2022-11-23T14:42:03.508Z,1.42
2022-11-23T14:44:38.607Z,1.50
2022-11-23T14:47:12.101Z,1.55
2022-11-23T14:49:51.357Z,1.52
2022-11-23T14:52:26.534Z,1.50
2022-11-23T14:55:01.978Z,2.03
2022-11-23T14:57:43.616Z,1.92
2022-11-23T15:00:29.116Z,1.60
2022-11-23T15:03:48.280Z,1.80
2022-11-23T15:06:15.619Z,2.13
2022-11-23T15:08:55.313Z,1.80
2022-11-23T15:11:37.413Z,1.98
2022-11-23T15:14:26.861Z,1.70
2022-11-23T15:17:17.105Z,1.75
2022-11-23T15:20:00.322Z,1.80
2022-11-23T15:22:36.026Z,1.90
2022-11-23T15:25:12.025Z,1.80
2022-11-23T15:27:44.447Z,1.90
2022-11-23T15:30:34.490Z,2.33
2022-11-23T15:33:11.721Z,2.00
2022-11-23T15:35:43.939Z,2.22
2022-11-23T15:38:22.155Z,1.92
2022-11-23T15:41:05.258Z,2.20
2022-11-23T15:43:37.335Z,2.53
2022-11-23T15:46:17.221Z,2.35
2022-11-23T15:48:50.440Z,2.10
2022-11-23T15:51:29.673Z,2.38
2022-11-23T15:54:02.507Z,2.70
2022-11-23T15:56:39.661Z,2.65
2022-11-23T15:59:41.059Z,2.38
2022-11-23T16:02:21.273Z,2.35
2022-11-23T16:05:18.401Z,2.60
2022-11-23T16:08:00.267Z,2.88
2022-11-23T16:10:35.097Z,2.60
2022-11-23T16:13:13.936Z,3.30
2022-11-23T16:15:59.146Z,2.80
2022-11-23T16:18:34.156Z,3.05
2022-11-23T16:21:11.028Z,3.33
2022-11-23T16:23:54.623Z,3.45
2022-11-23T16:26:32.104Z,3.10
2022-11-23T16:29:06.338Z,6.15
2022-11-23T16:31:44.241Z,6.80
2022-11-23T16:34:20.690Z,4.43
2022-11-23T16:36:59.499Z,4.32
2022-11-23T16:39:31.652Z,6.43
2022-11-23T16:42:03.867Z,4.97
2022-11-23T16:44:41.596Z,12.07
2022-11-23T16:47:31.333Z,22.27
2022-11-23T16:50:04.750Z,32.90
2022-11-23T16:52:45.443Z,16.50
2022-11-23T16:55:18.765Z,25.60
2022-11-23T16:57:58.304Z,62.80
2022-11-23T17:00:32.707Z,45.08
2022-11-23T17:03:06.886Z,27.88
2022-11-23T17:05:42.082Z,18.35
2022-11-23T17:08:19.711Z,8.68
2022-11-23T17:11:03.299Z,5.88
2022-11-23T17:13:41.364Z,5.68
2022-11-23T17:16:18.385Z,5.43
2022-11-23T17:18:50.528Z,5.35
2022-11-23T17:21:22.561Z,6.00
2022-11-23T17:23:54.876Z,6.75
2022-11-23T17:26:34.879Z,6.20
2022-11-23T17:29:17.859Z,8.07
2022-11-23T17:31:51.185Z,6.82
2022-11-23T17:34:23.218Z,6.55
2022-11-23T17:36:57.835Z,6.68
2022-11-23T17:39:45.588Z,5.57
2022-11-23T17:42:20.013Z,5.15
2022-11-23T17:44:58.071Z,6.18
2022-11-23T17:47:33.712Z,6.57
2022-11-23T17:50:22.913Z,5.88
2022-11-23T17:53:00.853Z,6.32
2022-11-23T17:55:36.013Z,5.97
2022-11-23T17:58:12.910Z,7.57
2022-11-23T18:00:52.008Z,8.30
2022-11-23T18:03:30.371Z,7.28
2022-11-23T18:06:02.979Z,6.78
2022-11-23T18:08:37.864Z,6.07
2022-11-23T18:11:18.261Z,7.30
2022-11-23T18:13:55.235Z,9.65
2022-11-23T18:16:43.114Z,7.30
2022-11-23T18:19:18.135Z,8.55
2022-11-23T18:21:50.824Z,8.65
2022-11-23T18:24:32.263Z,8.02
2022-11-23T18:27:04.451Z,7.78
2022-11-23T18:29:40.462Z,8.30
2022-11-23T18:32:14.907Z,7.85
2022-11-23T18:34:47.062Z,8.52
2022-11-23T18:37:32.974Z,7.93
2022-11-23T18:40:36.465Z,8.38
2022-11-23T18:43:45.474Z,8.27
2022-11-23T18:46:22.971Z,12.38
2022-11-23T18:49:04.977Z,12.85
2022-11-23T18:51:54.239Z,12.00
2022-11-23T18:55:04.789Z,12.23
2022-11-23T19:00:30.959Z,12.80
2022-11-23T19:03:13.381Z,14.23
2022-11-23T19:05:50.354Z,27.77
2022-11-23T19:08:22.818Z,20.77
2022-11-23T19:11:04.528Z,17.88
2022-11-23T19:16:54.426Z,19.75
2022-11-23T19:23:01.618Z,15.88
2022-11-23T19:27:21.955Z,16.98
2022-11-23T19:29:53.876Z,22.25
2022-11-23T19:32:49.106Z,16.95
2022-11-23T19:35:23.845Z,21.52
2022-11-23T19:38:04.528Z,19.15
2022-11-23T19:51:29.361Z,10.95
2022-11-23T19:54:02.271Z,10.85
2022-11-23T19:56:35.439Z,9.80
2022-11-23T19:59:07.634Z,35.10
2022-11-23T20:01:39.928Z,12.52
2022-11-23T20:04:12.205Z,5.78
2022-11-23T20:06:44.476Z,5.82
2022-11-23T20:09:19.477Z,5.63
2022-11-23T20:11:52.081Z,7.45
2022-11-23T20:14:24.154Z,7.97
2022-11-23T20:16:56.449Z,5.88
2022-11-23T20:19:28.677Z,7.28
2022-11-23T20:22:00.772Z,7.50
2022-11-23T20:24:32.900Z,5.88
2022-11-23T20:27:05.396Z,5.78
2022-11-23T20:29:37.553Z,6.00
2022-11-23T20:32:10.216Z,5.70
2022-11-23T20:34:42.572Z,6.30
2022-11-23T20:37:14.918Z,5.22
2022-11-23T20:39:46.967Z,5.55
2022-11-23T20:42:20.240Z,4.10
2022-11-23T20:44:52.324Z,4.72
2022-11-23T20:47:24.789Z,4.35
2022-11-23T20:49:57.333Z,4.45
2022-11-23T20:52:29.582Z,4.35
2022-11-23T20:55:01.761Z,4.20
2022-11-23T20:57:34.094Z,3.78
2022-11-23T21:00:06.898Z,4.40
2022-11-23T21:02:39.069Z,4.70
2022-11-23T21:05:11.345Z,5.85
2022-11-23T21:07:44.337Z,6.22
2022-11-23T21:10:35.649Z,3.25
2022-11-23T21:13:48.516Z,2.60
2022-11-23T21:16:21.681Z,3.00
2022-11-23T21:18:53.859Z,4.47
2022-11-23T21:21:26.695Z,3.58
2022-11-23T21:23:58.812Z,3.53
2022-11-23T21:26:31.644Z,2.80
2022-11-23T21:29:11.476Z,2.88
2022-11-23T21:31:45.421Z,2.22
2022-11-23T21:34:17.907Z,2.60
2022-11-23T21:36:50.645Z,3.60
2022-11-23T21:39:23.585Z,3.00
2022-11-23T21:41:55.692Z,2.95
2022-11-23T21:44:27.677Z,3.78
2022-11-23T21:46:59.764Z,3.15
2022-11-23T21:49:31.888Z,3.65
2022-11-23T21:52:04.289Z,3.10
2022-11-23T21:54:36.553Z,2.47
2022-11-23T21:57:09.365Z,2.60
2022-11-23T21:59:41.515Z,3.42
2022-11-23T22:02:13.619Z,3.30
2022-11-23T22:04:45.655Z,3.17
2022-11-23T22:07:17.658Z,2.47
2022-11-23T22:09:49.738Z,3.30
2022-11-23T22:12:21.725Z,2.97
2022-11-23T22:14:54.038Z,3.72
2022-11-23T22:17:26.495Z,3.33
2022-11-23T22:19:58.508Z,3.00
2022-11-23T22:22:30.495Z,2.63
2022-11-23T22:25:02.629Z,2.72
2022-11-23T22:27:36.423Z,2.90
2022-11-23T22:30:09.181Z,4.13
2022-11-23T22:32:41.195Z,3.58
2022-11-23T22:35:13.477Z,3.70
2022-11-23T22:37:45.431Z,4.45
2022-11-23T22:40:17.376Z,4.18
2022-11-23T22:42:49.503Z,3.33
2022-11-23T22:45:21.761Z,4.30
2022-11-23T22:47:53.784Z,3.55
2022-11-23T22:50:25.797Z,4.50
2022-11-23T22:52:57.746Z,5.13
2022-11-23T22:55:30.882Z,4.60
2022-11-23T22:58:02.869Z,4.82
2022-11-23T23:00:35.094Z,5.30
2022-11-23T23:03:07.453Z,5.25
2022-11-23T23:05:39.585Z,5.10
2022-11-23T23:08:12.980Z,4.95
2022-11-23T23:10:45.036Z,4.78
2022-11-23T23:13:17.576Z,4.85
2022-11-23T23:15:49.737Z,4.03
2022-11-23T23:18:21.779Z,3.90
2022-11-23T23:21:19.544Z,4.40
2022-11-23T23:23:54.662Z,4.15
2022-11-23T23:26:27.625Z,3.53
2022-11-23T23:29:00.711Z,4.20
2022-11-23T23:31:32.915Z,5.15
2022-11-23T23:34:05.107Z,3.72
2022-11-23T23:36:37.195Z,3.90
2022-11-23T23:39:10.796Z,3.75
2022-11-23T23:41:42.917Z,3.85
2022-11-23T23:44:14.958Z,3.75
2022-11-23T23:46:46.993Z,3.58
2022-11-23T23:49:19.020Z,3.47
2022-11-23T23:51:51.816Z,3.20
2022-11-23T23:54:24.224Z,2.30
2022-11-23T23:56:56.371Z,2.97
2022-11-23T23:59:28.523Z,2.83
